Time;durP1;ratioP1;P1;durP2;ratioP2;P2;SDS_P1;SDS_P2;PMS_P1;PMS_P2;Temp;Humidity;BMP_temperature;BMP_pressure;BME280_temperature;BME280_humidity;BME280_pressure;Samples;Min_cycle;Max_cycle;Signal;HPM_P1;HPM_P2
2023/10/10 00:02:20;;;;;;;13.40;5.00;;;17.00;99.90;;;;;;5035575;28;20400;-70
2023/10/10 00:04:54;;;;;;;12.20;5.70;;;16.90;99.90;;;;;;5035669;28;20449;-70
2023/10/10 00:07:20;;;;;;;15.83;5.70;;;16.90;99.90;;;;;;5034305;28;20410;-70
2023/10/10 00:09:46;;;;;;;8.10;4.93;;;17.00;99.90;;;;;;5035398;28;20839;-71
2023/10/10 00:12:26;;;;;;;12.43;5.77;;;17.00;99.90;;;;;;5035244;28;20839;-71
2023/10/10 00:14:53;;;;;;;8.97;5.20;;;17.00;99.90;;;;;;5035482;28;20236;-70
2023/10/10 00:17:20;;;;;;;10.80;6.53;;;16.90;99.90;;;;;;5035452;28;20415;-70
2023/10/10 00:19:52;;;;;;;10.30;4.97;;;16.80;99.90;;;;;;5034940;28;20566;-70
2023/10/10 00:22:26;;;;;;;12.10;4.97;;;16.80;99.90;;;;;;5034908;28;20393;-70
2023/10/10 00:24:52;;;;;;;9.87;5.47;;;16.80;99.90;;;;;;5033892;28;20414;-69
2023/10/10 00:27:18;;;;;;;12.07;5.07;;;16.80;99.90;;;;;;5034913;28;20417;-69
2023/10/10 00:29:43;;;;;;;8.77;5.60;;;16.90;99.90;;;;;;5034725;28;20432;-70
2023/10/10 00:32:17;;;;;;;9.40;5.23;;;16.90;99.90;;;;;;5033565;28;20160;-70
2023/10/10 00:34:47;;;;;;;10.90;5.30;;;16.80;99.90;;;;;;5035114;28;20197;-70
2023/10/10 00:37:21;;;;;;;12.47;4.80;;;16.80;99.90;;;;;;5035099;28;20462;-70
2023/10/10 00:39:52;;;;;;;10.60;5.00;;;16.80;99.90;;;;;;5034706;28;20426;-70
2023/10/10 00:42:36;;;;;;;10.10;5.13;;;16.80;99.90;;;;;;5035061;28;20470;-70
2023/10/10 00:45:10;;;;;;;9.40;4.90;;;16.80;99.90;;;;;;5035035;28;20423;-70
2023/10/10 00:47:42;;;;;;;11.00;4.67;;;16.80;99.90;;;;;;5034984;28;20479;-70
2023/10/10 00:50:20;;;;;;;11.33;5.90;;;16.70;99.90;;;;;;5034663;28;20431;-70
2023/10/10 00:52:51;;;;;;;10.40;5.30;;;16.70;99.90;;;;;;5034738;28;20465;-70
2023/10/10 00:55:21;;;;;;;7.57;4.90;;;16.70;99.90;;;;;;5034728;28;20900;-70
2023/10/10 00:57:52;;;;;;;10.30;5.40;;;16.70;99.90;;;;;;5034338;28;20406;-70
2023/10/10 01:00:19;;;;;;;12.00;6.40;;;16.70;99.90;;;;;;5034502;28;20945;-70
2023/10/10 01:02:46;;;;;;;11.70;4.97;;;16.60;99.90;;;;;;5034532;28;20413;-70
2023/10/10 01:05:12;;;;;;;9.97;5.60;;;16.60;99.90;;;;;;5034223;28;20479;-70
2023/10/10 01:07:38;;;;;;;9.20;5.87;;;16.60;99.90;;;;;;5032947;28;20923;-69
2023/10/10 01:10:11;;;;;;;8.93;5.37;;;16.60;99.90;;;;;;5033950;28;20943;-70
2023/10/10 01:12:42;;;;;;;11.40;6.30;;;16.50;99.90;;;;;;5034007;28;20968;-69
2023/10/10 01:15:24;;;;;;;8.30;5.27;;;16.50;99.90;;;;;;5034314;28;20389;-70
2023/10/10 01:17:51;;;;;;;14.00;4.90;;;16.50;99.90;;;;;;5034322;28;20388;-70
2023/10/10 01:23:18;;;;;;;8.60;4.73;;;16.50;99.90;;;;;;5021120;28;20432;-70
2023/10/10 01:25:45;;;;;;;9.93;5.00;;;16.50;99.90;;;;;;5034091;28;20404;-70
2023/10/10 01:28:22;;;;;;;11.13;4.80;;;16.40;99.90;;;;;;5034299;28;20445;-69
2023/10/10 01:34:08;;;;;;;9.13;4.97;;;16.20;99.90;;;;;;5031606;28;20528;-70
2023/10/10 01:36:20;;;;;;;9.90;5.30;;;16.20;99.90;;;;;;5030464;28;20473;-70
2023/10/10 01:39:06;;;;;;;10.33;5.33;;;16.10;99.90;;;;;;5033835;28;20422;-71
2023/10/10 01:41:38;;;;;;;9.47;5.90;;;16.20;99.90;;;;;;5033480;28;20409;-70
2023/10/10 01:44:17;;;;;;;10.57;6.20;;;16.20;99.90;;;;;;5033706;28;20442;-70
2023/10/10 01:46:43;;;;;;;10.10;5.63;;;16.10;99.90;;;;;;5033722;28;20379;-70
2023/10/10 01:49:20;;;;;;;9.80;5.20;;;16.10;99.90;;;;;;5031677;28;20828;-70
2023/10/10 01:51:50;;;;;;;10.23;5.67;;;16.00;99.90;;;;;;5033423;28;20403;-70
2023/10/10 01:54:18;;;;;;;12.80;6.50;;;16.10;99.90;;;;;;5033535;28;20449;-70
2023/10/10 01:56:45;;;;;;;8.67;5.53;;;16.00;99.90;;;;;;5033537;28;20497;-70
2023/10/10 01:59:19;;;;;;;9.40;5.00;;;16.00;99.90;;;;;;5033182;28;20449;-70
2023/10/10 02:01:45;;;;;;;11.33;6.20;;;15.90;99.90;;;;;;5033344;28;20900;-72
2023/10/10 02:04:11;;;;;;;11.87;5.90;;;15.80;99.90;;;;;;5033374;28;20456;-70
2023/10/10 02:06:45;;;;;;;10.27;5.83;;;15.80;99.90;;;;;;5033422;28;20918;-69
2023/10/10 02:09:27;;;;;;;8.33;5.37;;;15.80;99.90;;;;;;5033389;28;20744;-70
2023/10/10 02:11:54;;;;;;;10.60;5.50;;;15.80;99.90;;;;;;5033122;28;20425;-70
2023/10/10 02:14:25;;;;;;;9.33;5.43;;;15.80;99.90;;;;;;5033201;28;20449;-71
2023/10/10 02:16:54;;;;;;;9.93;5.73;;;15.70;99.90;;;;;;5033058;28;20390;-68
2023/10/10 02:22:22;;;;;;;12.50;5.90;;;15.60;99.90;;;;;;5009951;28;20946;-68
2023/10/10 02:24:51;;;;;;;8.40;5.10;;;15.70;99.90;;;;;;5032959;28;20379;-70
2023/10/10 02:27:22;;;;;;;9.03;5.20;;;15.60;99.90;;;;;;5032894;28;20452;-70
2023/10/10 02:29:48;;;;;;;11.20;5.30;;;15.60;99.90;;;;;;5033111;28;20417;-70
2023/10/10 02:32:18;;;;;;;9.93;5.93;;;15.60;99.90;;;;;;5032977;28;20568;-70
2023/10/10 02:34:51;;;;;;;8.37;4.80;;;15.70;99.90;;;;;;5033135;28;20187;-71
2023/10/10 02:39:56;;;;;;;9.30;5.03;;;15.60;99.90;;;;;;5033258;28;20425;-71
2023/10/10 02:42:23;;;;;;;10.17;5.47;;;15.50;99.90;;;;;;5013567;28;20823;-71
2023/10/10 02:44:57;;;;;;;8.43;5.50;;;15.50;99.90;;;;;;5013767;28;20412;-70
2023/10/10 02:47:32;;;;;;;11.57;5.90;;;15.50;99.90;;;;;;5017637;28;20460;-70
2023/10/10 02:50:10;;;;;;;9.37;5.60;;;15.50;99.90;;;;;;5017192;28;20934;-71
2023/10/10 02:52:39;;;;;;;8.30;5.20;;;15.50;99.90;;;;;;5036902;28;20441;-70
2023/10/10 02:55:16;;;;;;;11.10;5.90;;;15.50;99.90;;;;;;5037212;28;20430;-69
2023/10/10 02:57:42;;;;;;;13.43;6.13;;;15.50;99.90;;;;;;5036913;28;20811;-69
2023/10/10 03:00:28;;;;;;;10.83;6.27;;;15.40;99.90;;;;;;5046988;22;20486;-69
2023/10/10 03:02:55;;;;;;;11.50;5.53;;;15.20;99.90;;;;;;5036697;28;20389;-69
2023/10/10 03:05:40;;;;;;;15.37;6.40;;;15.10;99.90;;;;;;5036470;28;20759;-69
2023/10/10 03:08:18;;;;;;;9.87;5.70;;;15.00;99.90;;;;;;5036386;28;20415;-69
2023/10/10 03:10:53;;;;;;;10.43;5.30;;;15.00;99.90;;;;;;5009188;28;20998;-69
2023/10/10 03:13:28;;;;;;;7.67;5.10;;;15.00;99.90;;;;;;5002949;28;20444;-69
2023/10/10 03:34:45;;;;;;;8.90;5.40;;;14.90;99.90;;;;;;5016560;28;20965;-69
2023/10/10 03:40:05;;;;;;;12.03;6.33;;;14.90;99.90;;;;;;4996116;28;20202;-68
2023/10/10 05:24:09;;;;;;;13.93;6.20;;;14.50;99.90;;;;;;5014158;28;20388;-69
2023/10/10 05:26:46;;;;;;;11.10;7.07;;;14.50;99.90;;;;;;5012824;28;20775;-68
2023/10/10 05:29:12;;;;;;;8.63;5.97;;;14.50;99.90;;;;;;4986987;28;20477;-67
2023/10/10 05:31:38;;;;;;;12.10;5.90;;;14.40;99.90;;;;;;4985057;28;20768;-66
2023/10/10 05:34:04;;;;;;;14.60;5.90;;;14.40;99.90;;;;;;4985153;28;20455;-67
2023/10/10 05:36:29;;;;;;;9.93;6.03;;;14.40;99.90;;;;;;4985205;28;20683;-70
2023/10/10 05:38:55;;;;;;;11.83;5.90;;;14.40;99.90;;;;;;4984897;28;20229;-69
2023/10/10 05:41:22;;;;;;;13.63;6.27;;;14.40;99.90;;;;;;4984979;28;20215;-70
2023/10/10 05:43:51;;;;;;;12.77;7.20;;;14.40;99.90;;;;;;4984777;28;20792;-66
2023/10/10 05:46:16;;;;;;;10.50;5.80;;;14.40;99.90;;;;;;4984515;28;20430;-71
2023/10/10 05:48:42;;;;;;;14.90;6.57;;;14.40;99.90;;;;;;4984441;28;20703;-67
2023/10/10 05:51:10;;;;;;;15.33;6.53;;;14.40;99.90;;;;;;4984951;28;20184;-69
2023/10/10 05:53:35;;;;;;;15.33;6.23;;;14.40;99.90;;;;;;4984674;28;20247;-68
2023/10/10 05:56:12;;;;;;;14.90;6.67;;;14.40;99.90;;;;;;4984850;28;20875;-66
2023/10/10 05:58:42;;;;;;;11.10;5.20;;;14.40;99.90;;;;;;4985147;28;20677;-68
2023/10/10 06:01:12;;;;;;;11.37;6.30;;;14.40;99.90;;;;;;4985116;28;20416;-68
2023/10/10 06:03:39;;;;;;;12.43;6.07;;;14.40;99.90;;;;;;4984301;28;20414;-69
2023/10/10 06:06:04;;;;;;;10.23;6.10;;;14.40;99.90;;;;;;4984454;28;20793;-68
2023/10/10 06:08:31;;;;;;;11.40;6.10;;;14.40;99.90;;;;;;4984185;28;21221;-67
2023/10/10 06:10:57;;;;;;;10.27;6.10;;;14.30;99.90;;;;;;4984711;28;20210;-68
2023/10/10 06:13:23;;;;;;;12.03;6.63;;;14.20;99.90;;;;;;4984214;28;20840;-67
2023/10/10 06:15:52;;;;;;;10.43;6.23;;;14.20;99.90;;;;;;4984877;28;20914;-68
2023/10/10 06:18:18;;;;;;;12.00;5.10;;;14.30;99.90;;;;;;4984397;28;20433;-67
2023/10/10 06:20:45;;;;;;;17.87;6.30;;;14.40;99.90;;;;;;4983838;28;20425;-71
2023/10/10 06:23:20;;;;;;;12.00;6.50;;;14.50;99.90;;;;;;4984381;28;20904;-67
2023/10/10 06:25:47;;;;;;;11.27;6.00;;;14.60;99.90;;;;;;4984145;28;20418;-68
2023/10/10 06:28:29;;;;;;;9.87;6.00;;;14.70;99.90;;;;;;4984317;28;20477;-67
2023/10/10 06:30:55;;;;;;;12.00;6.40;;;14.80;99.90;;;;;;4983205;28;20569;-70
2023/10/10 06:33:28;;;;;;;11.70;7.10;;;14.90;99.90;;;;;;4984236;28;20495;-67
2023/10/10 06:38:45;;;;;;;12.87;6.20;;;14.90;99.90;;;;;;4989739;28;20431;-69
2023/10/10 06:41:17;;;;;;;11.63;6.17;;;14.90;99.90;;;;;;4997022;28;20999;-69
2023/10/10 06:43:46;;;;;;;13.97;6.50;;;14.90;99.90;;;;;;5011715;28;20390;-69
2023/10/10 06:46:17;;;;;;;11.50;6.40;;;15.10;99.90;;;;;;5012397;28;20409;-69
2023/10/10 06:48:47;;;;;;;9.63;5.87;;;15.20;99.90;;;;;;5012241;28;20474;-68
2023/10/10 06:51:16;;;;;;;8.93;6.07;;;15.30;99.90;;;;;;5006196;28;20457;-68
2023/10/10 06:53:45;;;;;;;11.70;7.60;;;15.30;99.90;;;;;;4989822;28;20553;-69
2023/10/10 06:56:17;;;;;;;12.80;6.90;;;15.50;99.90;;;;;;4985223;28;20425;-69
2023/10/10 06:58:46;;;;;;;12.03;6.50;;;15.50;99.90;;;;;;4991950;28;20504;-69
2023/10/10 07:01:12;;;;;;;11.43;6.23;;;15.60;99.90;;;;;;4983732;28;20464;-69
2023/10/10 07:03:46;;;;;;;14.67;6.70;;;15.70;99.90;;;;;;4983518;28;20446;-68
2023/10/10 07:06:12;;;;;;;13.93;6.50;;;15.80;99.90;;;;;;4984226;28;20512;-69
2023/10/10 07:08:38;;;;;;;10.70;6.60;;;15.80;99.90;;;;;;4983299;28;20513;-71
2023/10/10 07:11:04;;;;;;;11.60;6.60;;;15.90;99.90;;;;;;4979229;28;20418;-68
2023/10/10 07:13:30;;;;;;;12.10;7.20;;;16.00;99.90;;;;;;4995924;28;20232;-68
2023/10/10 07:15:59;;;;;;;8.87;6.43;;;16.10;99.90;;;;;;4988100;28;20447;-68
2023/10/10 07:18:25;;;;;;;11.33;5.93;;;16.20;99.90;;;;;;5000443;28;20549;-69
2023/10/10 07:23:37;;;;;;;11.20;6.67;;;16.30;99.90;;;;;;4987064;28;20468;-70
2023/10/10 07:26:19;;;;;;;10.50;6.77;;;16.50;99.90;;;;;;5005514;28;20766;-69
2023/10/10 07:28:48;;;;;;;12.83;6.80;;;16.60;99.90;;;;;;5007260;28;20454;-69
2023/10/10 07:31:17;;;;;;;12.40;6.80;;;16.70;99.90;;;;;;5000205;28;20453;-69
2023/10/10 07:33:45;;;;;;;12.10;7.10;;;16.90;99.90;;;;;;5001852;28;20440;-68
2023/10/10 07:36:13;;;;;;;17.37;7.37;;;17.00;99.90;;;;;;5006418;28;20423;-69
2023/10/10 07:38:39;;;;;;;19.67;8.90;;;17.10;99.90;;;;;;5009505;28;20444;-69
2023/10/10 07:41:05;;;;;;;16.07;8.40;;;17.20;99.90;;;;;;5004997;28;20448;-69
2023/10/10 07:43:34;;;;;;;14.53;7.53;;;17.30;99.90;;;;;;4990170;28;20944;-69
2023/10/10 07:46:14;;;;;;;14.30;7.10;;;17.50;99.90;;;;;;4990115;28;20215;-70
2023/10/10 07:48:44;;;;;;;12.07;7.10;;;17.60;99.90;;;;;;4997316;28;20448;-70
2023/10/10 07:51:09;;;;;;;13.17;6.60;;;17.70;99.90;;;;;;5003701;28;20442;-69
2023/10/10 07:53:43;;;;;;;15.97;6.63;;;17.90;99.90;;;;;;4990119;28;20528;-69
2023/10/10 07:56:09;;;;;;;11.77;6.40;;;18.00;99.90;;;;;;5006050;28;20172;-69
2023/10/10 07:58:43;;;;;;;15.27;6.77;;;18.00;99.90;;;;;;4999877;28;20416;-70
2023/10/10 08:01:16;;;;;;;16.33;8.20;;;18.10;99.90;;;;;;4990351;28;20175;-69
2023/10/10 08:03:44;;;;;;;11.27;6.90;;;18.00;99.90;;;;;;5001926;28;20406;-70
2023/10/10 08:06:10;;;;;;;15.10;7.40;;;17.70;99.90;;;;;;5010699;28;20410;-69
2023/10/10 08:08:36;;;;;;;14.70;8.30;;;17.60;99.90;;;;;;4996428;28;20921;-70
2023/10/10 08:11:12;;;;;;;14.37;7.97;;;17.60;99.90;;;;;;4993960;28;20485;-69
2023/10/10 08:13:42;;;;;;;13.53;7.33;;;17.30;99.90;;;;;;4988912;28;20188;-70
2023/10/10 08:16:08;;;;;;;12.30;6.63;;;17.30;99.90;;;;;;4993467;28;20996;-69
2023/10/10 08:18:41;;;;;;;13.00;7.73;;;17.50;99.90;;;;;;5008946;28;20502;-70
2023/10/10 08:21:12;;;;;;;17.83;7.87;;;17.80;99.90;;;;;;5004843;28;20575;-69
2023/10/10 08:23:49;;;;;;;9.73;7.00;;;18.10;99.90;;;;;;4990397;28;20396;-69
2023/10/10 08:26:19;;;;;;;15.57;7.70;;;18.30;99.90;;;;;;5009057;28;20402;-69
2023/10/10 08:28:45;;;;;;;21.10;7.40;;;18.50;99.90;;;;;;5009684;28;20767;-72
2023/10/10 08:31:13;;;;;;;13.47;7.37;;;18.60;99.90;;;;;;4997328;28;20422;-70
2023/10/10 08:33:38;;;;;;;16.23;7.73;;;18.80;99.90;;;;;;5009399;28;20257;-69
2023/10/10 08:36:04;;;;;;;14.93;7.70;;;18.80;99.90;;;;;;4993328;28;20930;-69
2023/10/10 08:38:29;;;;;;;17.00;7.73;;;18.60;99.90;;;;;;5007825;28;20242;-69
2023/10/10 08:41:06;;;;;;;15.90;8.77;;;18.40;99.90;;;;;;5005975;28;20179;-69
2023/10/10 08:43:35;;;;;;;20.40;8.57;;;18.20;99.90;;;;;;5008596;28;20171;-70
2023/10/10 08:46:08;;;;;;;18.93;9.70;;;18.10;99.90;;;;;;5009383;28;20414;-69
2023/10/10 08:48:36;;;;;;;14.70;8.40;;;18.00;99.90;;;;;;5001871;28;20918;-68
2023/10/10 08:51:04;;;;;;;20.90;8.33;;;17.90;99.90;;;;;;5002882;28;20406;-70
2023/10/10 08:53:38;;;;;;;19.83;8.70;;;18.20;99.90;;;;;;4993314;28;20443;-69
2023/10/10 08:56:03;;;;;;;16.23;7.60;;;18.50;99.90;;;;;;5008468;28;20490;-69
2023/10/10 08:58:31;;;;;;;13.97;7.40;;;18.90;99.90;;;;;;5008588;28;20517;-70
2023/10/10 09:01:05;;;;;;;14.60;8.33;;;19.20;99.90;;;;;;5050051;22;20223;-70
2023/10/10 09:03:34;;;;;;;14.83;7.20;;;19.50;99.90;;;;;;5026337;28;20469;-70
2023/10/10 09:06:16;;;;;;;19.50;8.37;;;19.50;99.90;;;;;;5027721;28;20905;-69
2023/10/10 09:08:49;;;;;;;18.30;8.50;;;19.30;99.90;;;;;;5027879;28;20401;-70
2023/10/10 09:11:23;;;;;;;17.80;8.67;;;19.00;99.90;;;;;;5009139;28;20398;-71
2023/10/10 09:13:52;;;;;;;22.63;9.40;;;18.90;99.90;;;;;;5008687;28;20478;-70
2023/10/10 09:16:41;;;;;;;12.90;8.00;;;19.10;99.90;;;;;;5008678;28;20414;-70
2023/10/10 09:19:11;;;;;;;13.00;7.40;;;19.30;99.90;;;;;;5008365;28;20395;-70
2023/10/10 09:21:56;;;;;;;17.40;8.80;;;19.40;99.90;;;;;;5008779;28;20892;-70
2023/10/10 09:24:28;;;;;;;19.90;8.80;;;19.60;99.90;;;;;;5007912;28;20400;-71
2023/10/10 09:27:10;;;;;;;15.27;7.90;;;19.80;99.90;;;;;;5007894;28;20482;-71
2023/10/10 09:29:43;;;;;;;20.50;9.00;;;19.80;99.90;;;;;;5008105;28;20462;-71
2023/10/10 09:32:13;;;;;;;20.40;9.50;;;20.00;99.90;;;;;;5007583;28;20410;-71
2023/10/10 09:34:42;;;;;;;18.03;8.00;;;20.00;99.90;;;;;;5007683;28;20821;-71
2023/10/10 09:37:11;;;;;;;16.27;8.30;;;20.00;99.90;;;;;;5007915;28;20565;-70
2023/10/10 09:39:37;;;;;;;14.37;7.20;;;20.10;99.90;;;;;;5007681;28;20836;-70
2023/10/10 09:42:08;;;;;;;13.17;8.23;;;20.10;99.90;;;;;;5007371;28;20944;-70
2023/10/10 09:52:57;;;;;;;16.20;8.77;;;21.10;99.90;;;;;;5007810;28;20442;-70
2023/10/10 10:09:08;;;;;;;19.10;7.93;;;21.70;99.90;;;;;;5007425;28;20423;-71
2023/10/10 10:11:43;;;;;;;13.63;7.50;;;21.70;99.90;;;;;;5008320;28;20391;-71
2023/10/10 10:14:21;;;;;;;17.57;7.70;;;21.60;99.90;;;;;;5008753;28;20442;-70
2023/10/10 10:16:58;;;;;;;20.93;7.10;;;21.90;99.90;;;;;;5013262;28;20447;-71
2023/10/10 10:19:28;;;;;;;13.97;7.17;;;22.20;99.90;;;;;;5012185;28;20426;-71
2023/10/10 10:22:08;;;;;;;11.70;6.70;;;22.30;99.90;;;;;;5013580;28;20407;-70
2023/10/10 10:25:07;;;;;;;13.17;7.23;;;22.60;99.90;;;;;;5013386;28;20390;-71
2023/10/10 10:27:39;;;;;;;19.50;7.53;;;23.00;99.90;;;;;;5013532;28;20478;-71
2023/10/10 10:30:35;;;;;;;12.63;6.90;;;22.90;99.90;;;;;;5012806;28;20422;-69
2023/10/10 10:33:00;;;;;;;11.53;7.20;;;23.10;99.90;;;;;;5012898;28;20534;-71
2023/10/10 10:35:56;;;;;;;13.43;7.23;;;23.10;99.90;;;;;;5013294;28;20414;-71
2023/10/10 10:38:26;;;;;;;15.10;7.40;;;23.30;99.90;;;;;;5013961;28;20184;-71
2023/10/10 10:41:04;;;;;;;15.70;7.70;;;23.20;99.90;;;;;;5013057;28;20450;-69
2023/10/10 10:43:38;;;;;;;15.87;8.10;;;23.00;99.90;;;;;;5013173;28;20760;-71
2023/10/10 10:46:14;;;;;;;15.33;7.30;;;22.70;99.90;;;;;;5013208;28;20422;-71
2023/10/10 10:48:47;;;;;;;16.00;6.60;;;22.70;99.90;;;;;;5013284;28;20437;-70
2023/10/10 10:51:22;;;;;;;18.80;8.70;;;22.80;99.90;;;;;;5013156;28;20438;-70
2023/10/10 10:53:56;;;;;;;14.70;7.83;;;23.20;99.90;;;;;;5013256;28;20538;-70
2023/10/10 10:59:35;;;;;;;17.03;7.37;;;24.00;99.90;;;;;;5012902;28;20406;-70
2023/10/10 11:01:42;;;;;;;15.13;6.90;;;24.50;98.80;;;;;;5007872;28;20474;-69
2023/10/10 11:04:14;;;;;;;12.27;7.13;;;24.70;98.00;;;;;;5005604;28;20750;-70
2023/10/10 11:06:50;;;;;;;13.83;7.83;;;26.20;96.30;;;;;;5008762;28;20423;-71
2023/10/10 11:09:26;;;;;;;11.73;6.97;;;27.70;93.60;;;;;;5011648;28;20430;-71
2023/10/10 11:11:58;;;;;;;18.47;8.50;;;28.00;91.10;;;;;;5009919;28;20398;-69
2023/10/10 11:14:25;;;;;;;14.67;6.73;;;28.40;89.40;;;;;;5010280;28;20455;-72
2023/10/10 11:16:57;;;;;;;10.63;6.47;;;28.80;85.10;;;;;;5010339;28;20417;-70
2023/10/10 11:22:01;;;;;;;12.43;7.70;;;28.60;86.30;;;;;;5010415;28;20443;-70
2023/10/10 11:24:31;;;;;;;14.23;7.17;;;30.10;82.20;;;;;;5010345;28;20402;-71
2023/10/10 11:29:42;;;;;;;16.10;8.40;;;31.00;68.90;;;;;;5010279;28;20525;-71
2023/10/10 11:32:08;;;;;;;16.50;7.50;;;30.90;70.00;;;;;;5010689;28;20433;-70
2023/10/10 11:34:46;;;;;;;10.40;7.40;;;30.90;68.20;;;;;;5010710;28;20458;-71
2023/10/10 11:37:20;;;;;;;14.00;7.03;;;31.80;66.20;;;;;;5009593;28;20179;-71
2023/10/10 11:39:47;;;;;;;13.73;7.30;;;32.40;62.80;;;;;;5011021;28;20465;-72
2023/10/10 11:42:33;;;;;;;13.40;7.13;;;32.40;60.80;;;;;;5010358;28;20449;-70
2023/10/10 11:45:07;;;;;;;13.60;7.07;;;32.50;59.70;;;;;;5010042;28;20403;-70
2023/10/10 11:47:42;;;;;;;13.07;6.53;;;32.00;60.00;;;;;;5009951;28;20886;-71
2023/10/10 11:50:12;;;;;;;10.00;6.83;;;31.60;60.00;;;;;;5009761;28;20437;-71
2023/10/10 11:52:56;;;;;;;12.70;7.77;;;31.10;63.60;;;;;;5010210;28;20928;-70
2023/10/10 11:55:23;;;;;;;11.43;6.27;;;31.60;62.80;;;;;;5009757;28;20411;-71
2023/10/10 11:57:49;;;;;;;12.10;6.40;;;30.90;60.10;;;;;;5010770;28;20920;-71
2023/10/10 12:00:22;;;;;;;14.67;6.50;;;31.10;60.30;;;;;;5009025;28;20886;-70
2023/10/10 12:02:49;;;;;;;16.27;6.97;;;31.10;60.00;;;;;;5010002;28;21000;-70
2023/10/10 12:07:58;;;;;;;12.60;6.97;;;31.20;61.70;;;;;;5009040;28;20481;-71
2023/10/10 12:10:31;;;;;;;13.03;6.33;;;30.90;59.60;;;;;;5009489;28;21084;-71
2023/10/10 12:12:56;;;;;;;12.83;6.03;;;31.00;60.20;;;;;;5009696;28;20465;-71
2023/10/10 12:15:22;;;;;;;11.83;6.27;;;31.40;59.30;;;;;;5009161;28;20423;-71
2023/10/10 12:17:52;;;;;;;12.60;6.30;;;32.10;61.10;;;;;;5008193;28;20294;-71
2023/10/10 12:20:18;;;;;;;11.00;6.60;;;31.90;57.80;;;;;;5009362;28;20210;-71
2023/10/10 12:22:44;;;;;;;14.30;6.40;;;31.60;58.10;;;;;;5009588;28;20465;-70
2023/10/10 12:25:14;;;;;;;18.13;6.90;;;31.60;57.20;;;;;;5009611;28;20411;-72
2023/10/10 12:27:46;;;;;;;12.47;6.33;;;30.90;58.40;;;;;;5009770;28;20176;-72
2023/10/10 12:30:19;;;;;;;12.30;5.77;;;30.50;58.00;;;;;;5009066;28;20435;-71
2023/10/10 12:32:49;;;;;;;13.70;6.00;;;30.10;59.10;;;;;;5008844;28;20479;-70
2023/10/10 12:35:15;;;;;;;13.60;6.97;;;30.30;59.50;;;;;;5009155;28;20419;-71
2023/10/10 12:37:44;;;;;;;13.97;6.50;;;29.20;60.40;;;;;;5009485;28;20509;-70
2023/10/10 12:40:11;;;;;;;15.97;6.43;;;28.60;63.10;;;;;;5008337;28;20427;-71
2023/10/10 12:42:36;;;;;;;17.80;6.70;;;27.60;66.20;;;;;;5009063;28;20505;-70
2023/10/10 12:45:03;;;;;;;12.20;6.33;;;27.40;68.00;;;;;;5008856;28;21056;-71
2023/10/10 12:47:32;;;;;;;12.57;5.83;;;27.60;68.70;;;;;;5008808;28;20184;-71
2023/10/10 12:50:04;;;;;;;13.63;6.67;;;27.90;67.30;;;;;;5008231;28;20484;-71
2023/10/10 12:52:35;;;;;;;14.13;6.50;;;28.60;66.80;;;;;;5008559;28;20398;-71
2023/10/10 12:55:09;;;;;;;20.53;6.57;;;28.50;64.50;;;;;;5008778;28;20418;-71
2023/10/10 12:57:36;;;;;;;10.80;5.97;;;28.70;64.50;;;;;;5008770;28;20482;-71
2023/10/10 13:02:46;;;;;;;14.50;6.73;;;29.40;64.70;;;;;;5008893;28;20394;-69
2023/10/10 13:05:12;;;;;;;12.90;6.60;;;29.30;63.60;;;;;;5008200;28;20411;-71
2023/10/10 13:07:41;;;;;;;17.93;7.17;;;30.10;65.10;;;;;;5007920;28;20168;-71
2023/10/10 13:10:10;;;;;;;15.83;6.27;;;30.70;63.70;;;;;;5008831;28;20221;-71
2023/10/10 13:12:39;;;;;;;11.60;5.80;;;30.70;62.90;;;;;;5008542;28;20816;-71
2023/10/10 13:15:16;;;;;;;20.07;6.33;;;31.20;62.20;;;;;;5007649;28;20968;-71
2023/10/10 13:17:53;;;;;;;12.43;6.03;;;31.30;62.50;;;;;;5008678;28;20805;-71
2023/10/10 13:20:21;;;;;;;15.37;5.60;;;30.80;64.10;;;;;;5007559;28;20427;-71
2023/10/10 13:22:53;;;;;;;11.67;5.20;;;31.10;63.70;;;;;;5007870;28;20411;-71
2023/10/10 13:25:20;;;;;;;11.90;6.43;;;31.10;61.70;;;;;;5008824;28;20438;-71
2023/10/10 13:27:55;;;;;;;14.40;6.50;;;30.80;63.20;;;;;;5008107;28;20418;-71
2023/10/10 13:30:20;;;;;;;10.90;6.57;;;30.90;64.30;;;;;;5006374;28;20492;-71
2023/10/10 13:32:46;;;;;;;12.83;5.87;;;31.60;62.30;;;;;;5008844;28;20411;-70
2023/10/10 13:35:11;;;;;;;16.03;7.03;;;31.90;59.70;;;;;;5008826;28;20168;-72
2023/10/10 13:37:41;;;;;;;11.23;5.37;;;31.90;59.80;;;;;;5007839;28;20172;-70
2023/10/10 13:40:08;;;;;;;17.50;6.87;;;31.80;59.00;;;;;;5008207;28;20571;-71
2023/10/10 13:42:34;;;;;;;10.70;5.97;;;31.30;59.50;;;;;;5008678;28;20403;-70
2023/10/10 13:45:11;;;;;;;12.70;6.20;;;30.10;60.90;;;;;;5009995;28;20498;-70
2023/10/10 13:47:39;;;;;;;10.00;6.10;;;30.40;62.60;;;;;;5012975;28;20387;-70
2023/10/10 13:52:50;;;;;;;13.53;7.23;;;29.60;61.70;;;;;;5012823;28;20402;-71
2023/10/10 13:55:18;;;;;;;14.00;6.63;;;29.70;61.70;;;;;;5013226;28;20419;-72
2023/10/10 13:57:44;;;;;;;17.00;6.83;;;28.90;61.20;;;;;;5027323;28;20413;-71
2023/10/10 14:00:28;;;;;;;13.87;7.60;;;28.40;62.70;;;;;;5019161;28;20447;-72
2023/10/10 14:02:59;;;;;;;14.40;6.03;;;28.30;62.90;;;;;;5014180;28;20230;-71
2023/10/10 14:05:29;;;;;;;13.57;6.70;;;27.90;63.10;;;;;;5013800;28;20943;-71
2023/10/10 14:07:55;;;;;;;11.00;7.00;;;27.60;64.00;;;;;;5013738;28;20411;-71
2023/10/10 14:10:21;;;;;;;16.73;8.23;;;27.70;64.50;;;;;;5013262;28;20823;-70
2023/10/10 14:12:46;;;;;;;14.53;7.80;;;27.40;63.50;;;;;;5012282;28;20422;-70
2023/10/10 14:15:12;;;;;;;15.90;7.00;;;27.50;63.70;;;;;;5012832;28;20176;-70
2023/10/10 14:17:38;;;;;;;14.30;6.43;;;27.60;63.80;;;;;;5012003;28;20176;-70
2023/10/10 14:20:19;;;;;;;12.20;7.20;;;27.20;63.90;;;;;;5012600;28;20188;-70
2023/10/10 14:22:46;;;;;;;15.33;7.80;;;27.20;65.50;;;;;;5008868;28;20179;-71
2023/10/10 14:25:12;;;;;;;13.97;7.40;;;27.60;64.60;;;;;;5013452;28;20414;-71
2023/10/10 14:27:43;;;;;;;12.13;7.10;;;27.80;66.50;;;;;;5013288;28;20494;-71
2023/10/10 14:30:21;;;;;;;13.67;7.60;;;27.80;63.30;;;;;;5012049;28;20520;-71
2023/10/10 14:32:58;;;;;;;13.00;6.70;;;26.90;64.30;;;;;;5012723;28;20518;-72
2023/10/10 14:35:23;;;;;;;13.37;7.13;;;26.80;65.80;;;;;;5013464;28;20383;-71
2023/10/10 14:37:56;;;;;;;14.57;7.73;;;26.80;65.40;;;;;;5013245;28;20406;-70
2023/10/10 14:40:23;;;;;;;12.37;6.93;;;26.50;66.30;;;;;;5012709;28;20322;-70
2023/10/10 14:42:55;;;;;;;12.90;6.57;;;26.50;66.30;;;;;;5016696;28;20410;-71
2023/10/10 14:45:28;;;;;;;16.27;8.13;;;26.40;66.80;;;;;;5016980;28;20387;-70
2023/10/10 14:47:55;;;;;;;11.30;6.57;;;26.50;66.80;;;;;;5017064;28;20444;-70
2023/10/10 14:50:24;;;;;;;11.37;6.97;;;26.40;66.90;;;;;;5016559;28;20423;-70
2023/10/10 14:52:51;;;;;;;14.80;7.13;;;26.20;68.00;;;;;;5016736;28;20461;-70
2023/10/10 14:55:27;;;;;;;12.90;6.60;;;26.30;67.00;;;;;;5017138;28;20399;-71
2023/10/10 14:57:56;;;;;;;15.00;6.97;;;26.20;67.20;;;;;;5017240;28;20762;-71
2023/10/10 15:00:27;;;;;;;11.27;6.00;;;26.20;67.60;;;;;;5055447;22;20525;-69
2023/10/10 15:02:54;;;;;;;13.73;7.93;;;26.00;68.80;;;;;;5036458;28;20398;-68
2023/10/10 15:05:23;;;;;;;16.13;7.87;;;26.30;70.00;;;;;;5036344;28;20398;-69
2023/10/10 15:07:52;;;;;;;12.17;6.23;;;26.30;71.00;;;;;;5036365;28;20889;-69
2023/10/10 15:10:25;;;;;;;10.13;7.00;;;26.30;69.50;;;;;;5035740;28;20431;-69
2023/10/10 15:12:53;;;;;;;13.00;6.87;;;26.50;72.00;;;;;;5036697;28;20806;-67
2023/10/10 15:15:18;;;;;;;16.23;7.53;;;26.30;74.40;;;;;;5036317;28;20411;-71
2023/10/10 15:17:45;;;;;;;15.20;6.83;;;26.10;74.40;;;;;;5036560;28;20840;-70
2023/10/10 15:20:14;;;;;;;15.83;8.10;;;25.70;77.10;;;;;;5036239;28;20237;-69
2023/10/10 15:22:41;;;;;;;17.50;7.50;;;25.40;77.20;;;;;;5016543;28;20403;-68
2023/10/10 15:25:10;;;;;;;22.40;7.27;;;24.90;79.20;;;;;;5019027;28;20458;-69
2023/10/10 15:27:40;;;;;;;14.50;7.73;;;24.90;81.70;;;;;;5036167;28;20409;-71
2023/10/10 15:30:08;;;;;;;13.37;7.10;;;24.70;83.40;;;;;;5036060;28;20975;-71
2023/10/10 15:32:43;;;;;;;13.87;7.17;;;24.50;84.70;;;;;;5035959;28;20493;-68
2023/10/10 15:35:10;;;;;;;12.20;7.00;;;24.40;85.50;;;;;;5035981;28;20481;-68
2023/10/10 15:37:42;;;;;;;10.47;7.27;;;24.20;86.50;;;;;;5035876;28;20969;-71
2023/10/10 15:40:12;;;;;;;13.93;7.03;;;23.90;87.80;;;;;;5035645;28;20418;-72
2023/10/10 15:42:39;;;;;;;16.50;6.87;;;23.50;88.70;;;;;;5035776;28;20391;-71
2023/10/10 15:45:05;;;;;;;16.00;7.43;;;23.30;90.00;;;;;;5035783;28;20493;-70
2023/10/10 15:47:31;;;;;;;14.50;6.57;;;23.10;90.50;;;;;;5035746;28;20814;-69
2023/10/10 15:50:00;;;;;;;12.30;6.97;;;23.10;90.90;;;;;;5034302;28;20195;-68
2023/10/10 15:52:27;;;;;;;11.60;6.93;;;23.10;91.30;;;;;;5034305;28;20434;-68
2023/10/10 15:54:52;;;;;;;11.63;7.33;;;23.00;91.90;;;;;;5034825;28;20449;-67